createdAt,value
2017-11-10T00:01:59.261Z,82.32
2017-11-10T00:04:26.876Z,82.27
2017-11-10T00:06:54.403Z,82.60
2017-11-10T00:09:22.007Z,82.34
2017-11-10T00:11:49.538Z,82.15
2017-11-10T00:14:17.072Z,81.91
2017-11-10T00:16:44.662Z,81.80
2017-11-10T00:19:12.198Z,82.13
2017-11-10T00:21:39.742Z,81.64
2017-11-10T00:24:07.297Z,82.00
2017-11-10T00:26:34.829Z,81.72
2017-11-10T00:29:02.358Z,81.30
2017-11-10T00:31:29.946Z,81.43
2017-11-10T00:33:57.590Z,81.57
2017-11-10T00:36:25.085Z,81.28
2017-11-10T00:38:52.616Z,81.24
2017-11-10T00:41:20.105Z,81.46
2017-11-10T00:43:47.593Z,81.39
2017-11-10T00:46:15.160Z,81.35
2017-11-10T00:48:42.648Z,81.42
2017-11-10T00:51:10.147Z,81.58
2017-11-10T00:53:37.690Z,81.85
2017-11-10T00:56:05.192Z,82.59
2017-11-10T00:58:32.773Z,83.06
2017-11-10T01:01:00.293Z,83.80
2017-11-10T01:03:27.777Z,84.11
2017-11-10T01:05:55.327Z,84.22
2017-11-10T01:08:22.868Z,84.48
2017-11-10T01:10:50.354Z,84.18
2017-11-10T01:13:17.848Z,84.36
2017-11-10T01:15:45.384Z,85.03
2017-11-10T01:18:12.872Z,84.16
2017-11-10T01:20:40.357Z,84.08
2017-11-10T01:23:07.942Z,84.19
2017-11-10T01:25:35.432Z,84.56
2017-11-10T01:28:02.944Z,84.50
2017-11-10T01:30:30.468Z,85.10
2017-11-10T01:32:57.965Z,85.26
2017-11-10T01:35:25.532Z,85.87
2017-11-10T01:37:53.049Z,86.33
2017-11-10T01:40:20.644Z,87.24
2017-11-10T01:42:48.131Z,87.75
2017-11-10T01:45:17.449Z,88.22
2017-11-10T01:47:44.967Z,89.03
2017-11-10T01:50:12.473Z,89.46
2017-11-10T01:52:39.980Z,89.78
2017-11-10T01:55:07.541Z,90.28
2017-11-10T01:57:35.037Z,90.76
2017-11-10T02:00:02.533Z,90.95
2017-11-10T02:02:30.065Z,91.15
2017-11-10T02:04:57.556Z,91.51
2017-11-10T02:07:25.049Z,91.71
2017-11-10T02:09:52.584Z,91.82
2017-11-10T02:12:20.121Z,92.22
2017-11-10T02:14:47.626Z,92.34
2017-11-10T02:17:15.112Z,92.16
2017-11-10T02:19:42.651Z,92.32
2017-11-10T02:22:10.181Z,92.37
2017-11-10T02:24:37.736Z,92.60
2017-11-10T02:27:05.407Z,92.82
2017-11-10T02:29:32.907Z,92.81
2017-11-10T02:32:00.417Z,93.00
2017-11-10T02:34:27.952Z,92.95
2017-11-10T02:36:55.445Z,92.85
2017-11-10T02:39:27.981Z,92.94
2017-11-10T02:41:55.475Z,92.91
2017-11-10T02:44:22.971Z,92.68
2017-11-10T02:46:50.506Z,92.83
2017-11-10T02:49:17.997Z,92.94
2017-11-10T02:51:45.486Z,93.07
2017-11-10T02:54:13.028Z,93.18
2017-11-10T02:56:40.542Z,93.07
2017-11-10T02:59:08.037Z,93.16
2017-11-10T03:01:35.570Z,93.31
2017-11-10T03:04:03.066Z,93.27
2017-11-10T03:06:30.649Z,93.39
2017-11-10T03:08:58.198Z,93.31
2017-11-10T03:11:25.689Z,93.30
2017-11-10T03:13:53.179Z,93.40
2017-11-10T03:16:20.703Z,93.28
2017-11-10T03:18:48.189Z,93.25
2017-11-10T03:21:15.702Z,93.62
2017-11-10T03:23:43.357Z,93.42
2017-11-10T03:26:10.920Z,93.53
2017-11-10T03:28:38.415Z,93.46
2017-11-10T03:31:05.946Z,93.55
2017-11-10T03:33:33.502Z,93.60
2017-11-10T03:36:00.997Z,93.62
2017-11-10T03:38:28.626Z,93.30
2017-11-10T03:40:56.154Z,93.44
2017-11-10T03:43:23.646Z,93.13
2017-11-10T03:45:51.185Z,93.44
2017-11-10T03:48:18.683Z,93.43
2017-11-10T03:50:46.173Z,93.31
2017-11-10T03:53:13.697Z,93.45
2017-11-10T03:55:41.187Z,93.29
2017-11-10T03:58:08.784Z,93.37
2017-11-10T04:00:36.347Z,93.57
2017-11-10T04:03:03.905Z,93.53
2017-11-10T04:05:31.403Z,93.45
2017-11-10T04:07:59.024Z,93.49
2017-11-10T04:10:26.527Z,93.60
2017-11-10T04:12:54.026Z,93.67
2017-11-10T04:15:21.560Z,93.71
2017-11-10T04:17:49.069Z,93.54
2017-11-10T04:20:16.617Z,93.64
2017-11-10T04:22:44.152Z,93.57
2017-11-10T04:25:12.936Z,93.51
2017-11-10T04:27:40.424Z,93.64
2017-11-10T04:30:07.976Z,93.81
2017-11-10T04:32:35.471Z,93.97
2017-11-10T04:35:02.993Z,93.80
2017-11-10T04:37:30.522Z,93.71
2017-11-10T04:39:58.020Z,93.83
2017-11-10T04:42:25.572Z,93.82
2017-11-10T04:44:53.186Z,93.92
2017-11-10T04:47:20.787Z,94.08
2017-11-10T04:49:48.283Z,94.00
2017-11-10T04:52:15.840Z,93.67
2017-11-10T04:54:43.364Z,93.66
2017-11-10T04:57:10.852Z,93.54
2017-11-10T04:59:38.373Z,93.58
2017-11-10T05:02:05.864Z,93.02
2017-11-10T05:04:33.393Z,93.37
2017-11-10T05:07:00.917Z,92.79
2017-11-10T05:09:28.432Z,92.91
2017-11-10T05:11:55.924Z,93.11
2017-11-10T05:14:23.452Z,93.18
2017-11-10T05:16:50.962Z,92.90
2017-11-10T05:19:18.579Z,92.59
2017-11-10T05:21:46.313Z,92.69
2017-11-10T05:24:13.805Z,92.79
2017-11-10T05:26:41.299Z,92.54
2017-11-10T05:29:08.839Z,92.31
2017-11-10T05:31:36.329Z,92.38
2017-11-10T05:34:03.835Z,92.41
2017-11-10T05:36:31.374Z,92.22
2017-11-10T05:38:58.868Z,91.87
2017-11-10T05:41:26.367Z,92.08
2017-11-10T05:43:53.921Z,91.81
2017-11-10T05:46:21.414Z,91.70
2017-11-10T05:48:48.905Z,91.87
2017-11-10T05:51:16.448Z,91.90
2017-11-10T05:53:43.941Z,91.48
2017-11-10T05:56:11.433Z,91.64
2017-11-10T05:58:38.949Z,91.89
2017-11-10T06:01:07.248Z,91.50
2017-11-10T06:03:34.786Z,91.35
2017-11-10T06:06:02.280Z,91.43
2017-11-10T06:08:29.773Z,91.47
2017-11-10T06:10:57.306Z,91.76
2017-11-10T06:13:24.798Z,91.90
2017-11-10T06:15:52.305Z,91.70
2017-11-10T06:18:19.974Z,91.79
2017-11-10T06:20:47.479Z,91.71
2017-11-10T06:23:14.987Z,91.71
2017-11-10T06:25:42.542Z,91.89
2017-11-10T06:28:10.060Z,91.92
2017-11-10T06:30:37.585Z,91.74
2017-11-10T06:33:05.102Z,91.69
2017-11-10T06:35:32.690Z,91.57
2017-11-10T06:38:00.349Z,91.88
2017-11-10T06:40:27.907Z,91.97
2017-11-10T06:42:55.402Z,92.15
2017-11-10T06:45:22.950Z,91.82
2017-11-10T06:47:50.443Z,91.87
2017-11-10T06:50:17.951Z,91.92
2017-11-10T06:52:45.488Z,91.85
2017-11-10T06:55:12.977Z,91.93
2017-11-10T06:57:40.534Z,92.11
2017-11-10T07:00:08.053Z,92.04
2017-11-10T07:02:35.548Z,91.72
2017-11-10T07:05:03.048Z,91.83
2017-11-10T07:07:30.670Z,91.69
2017-11-10T07:09:58.229Z,91.56
2017-11-10T07:12:25.726Z,91.59
2017-11-10T07:14:53.266Z,91.17
2017-11-10T07:17:20.847Z,91.00
2017-11-10T07:19:48.344Z,91.18
2017-11-10T07:22:15.898Z,91.07
2017-11-10T07:24:43.481Z,91.00
2017-11-10T07:27:10.970Z,90.51
2017-11-10T07:29:38.585Z,90.80
2017-11-10T07:32:06.072Z,89.95
2017-11-10T07:34:33.805Z,89.97
2017-11-10T07:37:01.300Z,90.07
2017-11-10T07:39:28.818Z,89.59
2017-11-10T07:41:56.352Z,89.51
2017-11-10T07:44:23.940Z,89.78
2017-11-10T07:46:51.451Z,89.78
2017-11-10T07:49:19.164Z,89.89
2017-11-10T07:51:46.676Z,89.62
2017-11-10T07:54:14.164Z,90.13
2017-11-10T07:56:41.848Z,90.13
2017-11-10T07:59:09.336Z,89.64
2017-11-10T08:01:36.849Z,89.92
2017-11-10T08:04:04.433Z,90.03
2017-11-10T08:06:31.937Z,90.41
2017-11-10T08:08:59.432Z,89.99
2017-11-10T08:11:26.972Z,89.92
2017-11-10T08:13:54.470Z,90.03
2017-11-10T08:16:21.969Z,90.19
2017-11-10T08:18:49.510Z,90.34
2017-11-10T08:21:17.011Z,89.59
2017-11-10T08:23:44.587Z,89.60
2017-11-10T08:26:12.141Z,89.45
2017-11-10T08:28:39.687Z,89.28
2017-11-10T08:31:07.187Z,89.09
2017-11-10T08:33:34.678Z,88.64
2017-11-10T08:36:02.192Z,88.83
2017-11-10T08:38:29.687Z,89.45
2017-11-10T08:40:57.187Z,89.42
2017-11-10T08:43:24.753Z,89.16
2017-11-10T08:45:52.326Z,89.03
2017-11-10T08:48:19.874Z,89.31
2017-11-10T08:50:47.533Z,89.19
2017-11-10T08:53:15.028Z,89.26
2017-11-10T08:55:42.514Z,89.16
2017-11-10T08:58:10.198Z,88.83
2017-11-10T09:00:37.695Z,89.04
2017-11-10T09:03:05.209Z,88.98
2017-11-10T09:05:32.735Z,89.17
2017-11-10T09:08:00.221Z,89.15
2017-11-10T09:10:27.716Z,88.50
2017-11-10T09:12:55.356Z,89.13
2017-11-10T09:15:22.852Z,88.84
2017-11-10T09:17:50.392Z,88.88
2017-11-10T09:20:17.936Z,88.98
2017-11-10T09:22:45.463Z,88.78
2017-11-10T09:25:12.974Z,88.92
2017-11-10T09:27:40.514Z,89.40
2017-11-10T09:30:18.512Z,88.90
2017-11-10T09:32:47.973Z,87.67
2017-11-10T09:35:21.069Z,87.62
2017-11-10T09:37:54.419Z,87.70
2017-11-10T09:40:27.634Z,87.65
2017-11-10T09:46:22.823Z,88.10
2017-11-10T09:48:56.000Z,88.68
2017-11-10T09:51:29.205Z,88.40
2017-11-10T09:54:02.399Z,88.15
2017-11-10T09:59:37.384Z,88.37
2017-11-10T10:02:14.810Z,88.47
2017-11-10T10:04:42.340Z,88.52
2017-11-10T10:07:11.329Z,88.08
2017-11-10T10:09:40.607Z,87.95
2017-11-10T10:12:13.880Z,88.25
2017-11-10T10:14:43.302Z,88.36
2017-11-10T10:17:12.757Z,88.19
2017-11-10T10:19:45.999Z,88.23
2017-11-10T10:22:14.297Z,87.74
2017-11-10T10:24:41.806Z,87.64
2017-11-10T10:27:09.341Z,87.58
2017-11-10T10:29:36.829Z,87.36
2017-11-10T10:32:04.323Z,87.07
2017-11-10T10:34:31.869Z,86.48
2017-11-10T10:36:59.361Z,86.48
2017-11-10T10:39:26.864Z,86.54
2017-11-10T10:41:54.430Z,86.01
2017-11-10T10:44:21.938Z,85.52
2017-11-10T10:46:49.443Z,85.78
2017-11-10T10:49:16.991Z,85.74
2017-11-10T10:51:44.561Z,85.51
2017-11-10T10:54:12.117Z,85.62
2017-11-10T10:56:39.663Z,85.11
2017-11-10T10:59:07.157Z,84.91
2017-11-10T11:01:34.692Z,84.72
2017-11-10T11:04:02.237Z,84.54
2017-11-10T11:06:29.736Z,83.74
2017-11-10T11:08:57.230Z,83.54
2017-11-10T11:11:24.783Z,83.73
2017-11-10T11:13:52.272Z,83.32
2017-11-10T11:16:19.858Z,83.04
2017-11-10T11:18:47.394Z,82.79
2017-11-10T11:21:14.877Z,83.16
2017-11-10T11:23:42.378Z,82.97
2017-11-10T11:26:09.981Z,82.29
2017-11-10T11:28:37.480Z,82.39
2017-11-10T11:31:04.993Z,82.71
2017-11-10T11:33:32.550Z,83.06
2017-11-10T11:36:00.231Z,83.24
2017-11-10T11:38:27.725Z,82.73
2017-11-10T11:40:55.252Z,83.02
2017-11-10T11:43:22.772Z,83.61
2017-11-10T11:45:50.381Z,83.82
2017-11-10T11:48:17.942Z,83.99
2017-11-10T11:50:45.490Z,83.87
2017-11-10T11:53:12.985Z,84.11
2017-11-10T11:55:40.505Z,83.54
2017-11-10T11:58:08.057Z,84.16
2017-11-10T12:00:35.618Z,83.17
2017-11-10T12:03:03.169Z,83.05
2017-11-10T12:05:30.738Z,83.64
2017-11-10T12:07:58.236Z,83.06
2017-11-10T12:10:25.729Z,83.54
2017-11-10T12:12:53.301Z,83.28
2017-11-10T12:15:20.805Z,83.56
2017-11-10T12:17:48.298Z,83.77
2017-11-10T12:20:15.883Z,83.91
2017-11-10T12:22:43.373Z,84.11
2017-11-10T12:25:10.896Z,84.89
2017-11-10T12:27:38.466Z,85.38
2017-11-10T12:30:05.961Z,85.88
2017-11-10T12:32:33.477Z,87.01
2017-11-10T12:35:01.141Z,87.26
2017-11-10T12:37:28.637Z,87.45
2017-11-10T12:39:56.285Z,87.52
2017-11-10T12:42:23.825Z,88.70
2017-11-10T12:44:51.385Z,88.66
2017-11-10T12:47:18.876Z,88.75
2017-11-10T12:49:46.396Z,89.27
2017-11-10T12:52:13.893Z,89.26
2017-11-10T12:54:41.376Z,89.43
2017-11-10T12:57:08.944Z,89.92
2017-11-10T12:59:36.433Z,90.06
2017-11-10T13:02:03.922Z,89.89
2017-11-10T13:04:31.571Z,90.49
2017-11-10T13:06:59.063Z,89.99
2017-11-10T13:09:26.552Z,90.26
2017-11-10T13:11:54.120Z,90.07
2017-11-10T13:14:21.614Z,90.34
2017-11-10T13:16:49.136Z,89.68
2017-11-10T13:19:16.674Z,90.13
2017-11-10T13:21:44.176Z,89.18
2017-11-10T13:24:11.670Z,88.94
2017-11-10T13:26:39.192Z,88.81
2017-11-10T13:29:06.688Z,88.18
2017-11-10T13:31:34.293Z,88.83
2017-11-10T13:34:01.805Z,89.22
2017-11-10T13:36:29.306Z,88.89
2017-11-10T13:38:56.883Z,89.28
2017-11-10T13:41:24.376Z,89.05
2017-11-10T13:43:51.865Z,88.67
2017-11-10T13:46:19.400Z,88.41
2017-11-10T13:48:46.916Z,88.64
2017-11-10T13:51:14.404Z,88.20
2017-11-10T13:53:41.939Z,88.67
2017-11-10T13:56:09.440Z,87.66
2017-11-10T13:58:36.928Z,88.46
2017-11-10T14:01:04.587Z,88.54
2017-11-10T14:03:32.085Z,88.13
2017-11-10T14:05:59.593Z,88.03
2017-11-10T14:08:27.170Z,88.24
2017-11-10T14:10:54.670Z,87.79
2017-11-10T14:13:22.382Z,87.74
2017-11-10T14:15:49.885Z,87.69
2017-11-10T14:18:17.383Z,87.74
2017-11-10T14:20:44.931Z,87.86
2017-11-10T14:23:12.434Z,87.24
2017-11-10T14:25:39.924Z,87.47
2017-11-10T14:28:07.451Z,87.27
2017-11-10T14:30:34.946Z,87.35
2017-11-10T14:33:02.433Z,87.28
2017-11-10T14:35:29.978Z,87.66
2017-11-10T14:37:57.469Z,87.88
2017-11-10T14:40:24.959Z,87.55
2017-11-10T14:42:52.468Z,88.15
2017-11-10T14:45:20.017Z,87.95
2017-11-10T14:47:47.607Z,88.37
2017-11-10T14:50:15.110Z,88.10
2017-11-10T14:52:42.654Z,87.83
2017-11-10T14:55:10.152Z,87.91
2017-11-10T14:57:37.641Z,87.66
2017-11-10T15:00:05.288Z,88.04
2017-11-10T15:02:32.781Z,88.62
2017-11-10T15:05:00.312Z,88.67
2017-11-10T15:07:27.835Z,89.01
2017-11-10T15:09:55.328Z,89.15
2017-11-10T15:12:22.825Z,89.19
2017-11-10T15:14:50.343Z,89.20
2017-11-10T15:17:17.836Z,89.65
2017-11-10T15:19:45.465Z,89.87
2017-11-10T15:22:12.956Z,89.91
2017-11-10T15:24:40.458Z,90.04
2017-11-10T15:27:07.990Z,89.95
2017-11-10T15:29:35.489Z,90.28
2017-11-10T15:32:02.978Z,89.64
2017-11-10T15:34:30.513Z,90.45
2017-11-10T15:36:58.075Z,90.35
2017-11-10T15:39:25.574Z,90.75
2017-11-10T15:41:53.289Z,90.52
2017-11-10T15:44:20.810Z,90.79
2017-11-10T15:46:48.301Z,90.57
2017-11-10T15:49:15.896Z,90.81
2017-11-10T15:51:43.398Z,90.80
2017-11-10T15:54:10.905Z,90.77
2017-11-10T15:56:38.456Z,91.20
2017-11-10T15:59:05.954Z,90.64
2017-11-10T16:01:33.489Z,90.51
2017-11-10T16:04:01.134Z,90.95
2017-11-10T16:06:28.625Z,90.68
2017-11-10T16:08:56.124Z,90.35
2017-11-10T16:11:23.656Z,90.26
2017-11-10T16:13:51.161Z,90.46
2017-11-10T16:16:18.659Z,90.40
2017-11-10T16:18:46.196Z,90.36
2017-11-10T16:21:13.740Z,90.40
2017-11-10T16:23:41.236Z,90.02
2017-11-10T16:26:08.766Z,90.25
2017-11-10T16:28:36.249Z,90.41
2017-11-10T16:31:03.741Z,90.42
2017-11-10T16:33:31.271Z,90.28
2017-11-10T16:35:58.755Z,90.58
2017-11-10T16:38:26.253Z,90.30
2017-11-10T16:40:53.779Z,90.37
2017-11-10T16:43:21.273Z,90.10
2017-11-10T16:45:48.763Z,89.75
2017-11-10T16:48:16.299Z,89.58
2017-11-10T16:50:43.793Z,89.73
2017-11-10T16:53:11.277Z,89.53
2017-11-10T16:55:38.793Z,89.69
2017-11-10T16:58:06.282Z,89.65
2017-11-10T17:00:33.868Z,89.65
2017-11-10T17:03:01.418Z,89.35
2017-11-10T17:05:28.911Z,89.37
2017-11-10T17:07:56.438Z,89.28
2017-11-10T17:10:24.022Z,89.09
2017-11-10T17:12:51.589Z,89.10
2017-11-10T17:15:19.065Z,89.10
2017-11-10T17:17:46.782Z,89.32
2017-11-10T17:20:14.258Z,89.65
2017-11-10T17:22:41.796Z,89.59
2017-11-10T17:25:09.357Z,90.10
2017-11-10T17:27:36.847Z,90.02
2017-11-10T17:30:04.347Z,90.82
2017-11-10T17:32:31.868Z,90.51
2017-11-10T17:34:59.412Z,90.74
2017-11-10T17:37:26.957Z,91.16
2017-11-10T17:39:54.497Z,90.63
2017-11-10T17:42:21.999Z,90.88
2017-11-10T17:44:49.528Z,90.62
2017-11-10T17:47:17.058Z,90.52
2017-11-10T17:49:44.550Z,89.40
2017-11-10T17:52:12.040Z,88.52
2017-11-10T17:54:39.577Z,88.37
2017-11-10T17:57:07.066Z,88.29
2017-11-10T17:59:34.554Z,88.22
2017-11-10T18:02:02.154Z,87.66
2017-11-10T18:04:29.675Z,87.55
2017-11-10T18:06:57.162Z,87.60
2017-11-10T18:09:24.690Z,87.24
2017-11-10T18:11:52.182Z,87.79
2017-11-10T18:14:19.669Z,88.10
2017-11-10T18:16:47.202Z,88.01
2017-11-10T18:19:14.694Z,87.98
2017-11-10T18:21:42.179Z,87.74
2017-11-10T18:24:09.693Z,87.70
2017-11-10T18:26:37.189Z,86.79
2017-11-10T18:29:04.784Z,86.93
2017-11-10T18:31:32.332Z,86.17
2017-11-10T18:33:59.888Z,86.88
2017-11-10T18:36:27.368Z,86.54
2017-11-10T18:38:54.962Z,86.21
2017-11-10T18:41:22.485Z,86.00
2017-11-10T18:43:50.028Z,85.43
2017-11-10T18:46:17.553Z,85.37
2017-11-10T18:48:45.985Z,84.81
2017-11-10T18:51:13.482Z,85.01
2017-11-10T18:53:41.768Z,84.61
2017-11-10T18:56:09.310Z,83.90
2017-11-10T18:58:36.808Z,83.79
2017-11-10T19:01:04.396Z,84.04
2017-11-10T19:03:31.922Z,84.45
2017-11-10T19:05:59.514Z,84.70
2017-11-10T19:08:26.999Z,85.03
2017-11-10T19:10:54.544Z,85.30
2017-11-10T19:13:22.031Z,85.24
2017-11-10T19:15:49.629Z,85.80
2017-11-10T19:18:17.162Z,85.72
2017-11-10T19:20:44.648Z,86.14
2017-11-10T19:23:12.136Z,85.51
2017-11-10T19:25:39.761Z,84.74
2017-11-10T19:28:07.254Z,84.43
2017-11-10T19:30:34.779Z,84.63
2017-11-10T19:33:02.300Z,84.75
2017-11-10T19:35:29.791Z,84.80
2017-11-10T19:37:57.477Z,84.46
2017-11-10T19:40:25.058Z,85.07
2017-11-10T19:42:52.615Z,84.67
2017-11-10T19:45:20.162Z,84.62
2017-11-10T19:47:47.815Z,84.96
2017-11-10T19:50:15.377Z,85.22
2017-11-10T19:52:42.947Z,85.17
2017-11-10T19:55:10.659Z,85.46
2017-11-10T19:57:38.465Z,84.92
2017-11-10T20:00:06.230Z,84.19
2017-11-10T20:02:34.097Z,85.08
2017-11-10T20:05:01.944Z,85.51
2017-11-10T20:07:29.725Z,85.95
2017-11-10T20:09:57.452Z,85.51
2017-11-10T20:12:25.254Z,85.96
2017-11-10T20:14:53.249Z,84.52
2017-11-10T20:17:21.088Z,83.60
2017-11-10T20:19:48.943Z,82.85
2017-11-10T20:22:16.718Z,82.83
2017-11-10T20:24:44.484Z,82.47
2017-11-10T20:27:12.087Z,81.54
2017-11-10T20:29:39.710Z,81.87
2017-11-10T20:32:07.280Z,81.74
2017-11-10T20:34:34.880Z,82.37
2017-11-10T20:37:02.386Z,82.54
2017-11-10T20:39:30.025Z,82.14
2017-11-10T20:41:57.603Z,82.64
2017-11-10T20:44:25.145Z,82.76
2017-11-10T20:46:52.733Z,83.80
2017-11-10T20:49:20.247Z,83.45
2017-11-10T20:51:47.841Z,83.58
2017-11-10T20:54:15.436Z,83.67
2017-11-10T20:56:42.941Z,83.76
2017-11-10T20:59:10.452Z,83.71
2017-11-10T21:01:38.010Z,83.79
2017-11-10T21:04:05.583Z,83.75
2017-11-10T21:06:33.145Z,83.96
2017-11-10T21:09:00.687Z,84.37
2017-11-10T21:11:28.212Z,84.65
2017-11-10T21:13:55.697Z,83.62
2017-11-10T21:16:23.305Z,83.58
2017-11-10T21:18:50.797Z,84.48
2017-11-10T21:21:18.276Z,82.97
2017-11-10T21:23:45.880Z,83.26
2017-11-10T21:26:13.452Z,83.96
2017-11-10T21:28:40.945Z,83.49
2017-11-10T21:31:08.555Z,82.83
2017-11-10T21:33:36.140Z,82.33
2017-11-10T21:36:03.707Z,82.36
2017-11-10T21:38:31.226Z,82.52
2017-11-10T21:40:58.815Z,82.24
2017-11-10T21:43:26.452Z,81.95
2017-11-10T21:45:53.943Z,81.47
2017-11-10T21:48:21.433Z,82.54
2017-11-10T21:50:49.303Z,82.67
2017-11-10T21:53:16.908Z,82.25
2017-11-10T21:55:44.406Z,82.23
2017-11-10T21:58:11.933Z,82.54
2017-11-10T22:00:39.421Z,81.74
2017-11-10T22:03:06.913Z,82.57
2017-11-10T22:05:34.454Z,81.16
2017-11-10T22:08:01.937Z,82.37
2017-11-10T22:10:29.426Z,82.36
2017-11-10T22:12:57.000Z,81.81
2017-11-10T22:15:24.476Z,81.13
2017-11-10T22:17:52.009Z,82.55
2017-11-10T22:20:19.492Z,81.93
2017-11-10T22:22:46.989Z,81.39
2017-11-10T22:25:14.523Z,80.92
2017-11-10T22:27:42.010Z,80.94
2017-11-10T22:30:09.494Z,80.97
2017-11-10T22:32:37.029Z,79.97
2017-11-10T22:35:04.518Z,79.78
2017-11-10T22:37:32.021Z,80.54
2017-11-10T22:39:59.561Z,78.60
2017-11-10T22:42:27.036Z,78.94
2017-11-10T22:44:54.519Z,78.72
2017-11-10T22:47:22.084Z,78.11
2017-11-10T22:49:49.561Z,78.30
2017-11-10T22:52:17.046Z,78.10
2017-11-10T22:54:44.565Z,78.40
2017-11-10T22:57:12.054Z,77.85
2017-11-10T22:59:39.679Z,78.17
2017-11-10T23:02:07.236Z,79.14
2017-11-10T23:04:34.779Z,78.09
2017-11-10T23:07:02.349Z,78.68
2017-11-10T23:09:29.831Z,78.39
2017-11-10T23:11:57.372Z,78.21
2017-11-10T23:14:24.852Z,78.51
2017-11-10T23:16:52.389Z,79.73
2017-11-10T23:19:19.901Z,78.72
2017-11-10T23:21:47.402Z,78.62
2017-11-10T23:24:14.919Z,78.29
2017-11-10T23:26:42.411Z,78.61
2017-11-10T23:29:09.893Z,77.61
2017-11-10T23:31:37.432Z,77.66
2017-11-10T23:34:04.921Z,77.68
2017-11-10T23:36:32.396Z,77.64
2017-11-10T23:39:00.024Z,78.65
2017-11-10T23:41:27.521Z,78.31
2017-11-10T23:43:55.000Z,77.99
2017-11-10T23:46:22.589Z,78.45
2017-11-10T23:48:50.065Z,78.49
2017-11-10T23:51:17.554Z,78.90
2017-11-10T23:53:45.056Z,77.82
2017-11-10T23:56:12.616Z,78.05
2017-11-10T23:58:41.196Z,78.21
